YAMB

RAAF Base Amberley Airport

Australia
TAF YAMB 151004Z 1511/1606 VRB04KT CAVOK FM152200 33007KT CAVOK FM160200 28012KT CAVOK
Issued Valid From Valid To
Aug-15 @ 10:04 UTC
(3 hours ago)
Aug-15 @ 11:00 UTC
(2 hours ago)
Aug-16 @ 06:00 UTC
(in 17 hours)
Aug-15 @ 11:00 to Aug-15 @ 22:00
TAF YAMB 151004Z 1511/1606 VRB04KT CAVOK
Wind Visibility Clouds Conditions
Variable at 4 knots 10,000+ meters
  • No significant clouds
From Aug-15 @ 22:00 to Aug-16 @ 02:00
FM152200 33007KT CAVOK
Wind Visibility Clouds Conditions
330° at 7 knots 10,000+ meters
  • No significant clouds
From Aug-16 @ 02:00 to Aug-16 @ 06:00
FM160200 28012KT CAVOK
Wind Visibility Clouds Conditions
280° at 12 knots 10,000+ meters
  • No significant clouds
TAF YAMB 151004Z 1511/1606 VRB04KT CAVOK FM152200 33007KT CAVOK FM160200 28012KT CAVOK
Issued Aug-15 @ 10:04 UTC
(3 hours ago)
Valid From Aug-15 @ 11:00 UTC
(2 hours ago)
Valid To Aug-16 @ 06:00 UTC
(in 17 hours)
Aug-15 @ 11:00 - Aug-15 @ 22:00
Wind Visibility
Variable at 4 knots 10,000+ meters
Clouds
  • No significant clouds
Conditions
From Aug-15 @ 22:00 - Aug-16 @ 02:00
Wind Visibility
330° at 7 knots 10,000+ meters
Clouds
  • No significant clouds
Conditions
From Aug-16 @ 02:00 - Aug-16 @ 06:00
Wind Visibility
280° at 12 knots 10,000+ meters
Clouds
  • No significant clouds
Conditions